sensor_id;sensor_type;location;lat;lon;timestamp;P1;durP1;ratioP1;P2;durP2;ratioP2
3207;SDS011;1616;52.394;9.756;2023-07-09T00:01:43;6.20;;;5.70;;
3207;SDS011;1616;52.394;9.756;2023-07-09T00:04:09;7.17;;;6.50;;
3207;SDS011;1616;52.394;9.756;2023-07-09T00:06:36;6.77;;;6.10;;
3207;SDS011;1616;52.394;9.756;2023-07-09T00:09:03;6.43;;;6.10;;
3207;SDS011;1616;52.394;9.756;2023-07-09T00:11:30;7.83;;;6.70;;
3207;SDS011;1616;52.394;9.756;2023-07-09T00:13:55;6.13;;;5.83;;
3207;SDS011;1616;52.394;9.756;2023-07-09T00:16:23;6.73;;;6.37;;
3207;SDS011;1616;52.394;9.756;2023-07-09T00:18:50;10.70;;;6.63;;
3207;SDS011;1616;52.394;9.756;2023-07-09T00:21:17;8.67;;;6.13;;
3207;SDS011;1616;52.394;9.756;2023-07-09T00:23:43;6.70;;;6.13;;
3207;SDS011;1616;52.394;9.756;2023-07-09T00:26:09;6.37;;;6.07;;
3207;SDS011;1616;52.394;9.756;2023-07-09T00:28:38;8.47;;;6.10;;
3207;SDS011;1616;52.394;9.756;2023-07-09T00:31:04;6.17;;;5.70;;
3207;SDS011;1616;52.394;9.756;2023-07-09T00:33:32;6.93;;;6.33;;
3207;SDS011;1616;52.394;9.756;2023-07-09T00:35:57;7.77;;;7.27;;
3207;SDS011;1616;52.394;9.756;2023-07-09T00:38:23;8.27;;;6.93;;
3207;SDS011;1616;52.394;9.756;2023-07-09T00:43:24;6.27;;;5.93;;
3207;SDS011;1616;52.394;9.756;2023-07-09T00:48:56;5.83;;;5.40;;
3207;SDS011;1616;52.394;9.756;2023-07-09T00:51:36;6.90;;;6.30;;
3207;SDS011;1616;52.394;9.756;2023-07-09T00:54:11;7.93;;;7.23;;
3207;SDS011;1616;52.394;9.756;2023-07-09T00:56:47;7.67;;;7.07;;
3207;SDS011;1616;52.394;9.756;2023-07-09T00:59:17;6.87;;;6.20;;
3207;SDS011;1616;52.394;9.756;2023-07-09T01:01:48;6.80;;;6.47;;
3207;SDS011;1616;52.394;9.756;2023-07-09T01:04:15;7.23;;;6.73;;
3207;SDS011;1616;52.394;9.756;2023-07-09T01:06:45;6.83;;;6.23;;
3207;SDS011;1616;52.394;9.756;2023-07-09T01:09:20;7.53;;;5.80;;
3207;SDS011;1616;52.394;9.756;2023-07-09T01:11:47;6.83;;;6.33;;
3207;SDS011;1616;52.394;9.756;2023-07-09T01:14:16;7.00;;;6.40;;
3207;SDS011;1616;52.394;9.756;2023-07-09T01:16:52;6.83;;;6.27;;
3207;SDS011;1616;52.394;9.756;2023-07-09T01:19:26;6.93;;;6.23;;
3207;SDS011;1616;52.394;9.756;2023-07-09T01:21:55;7.40;;;6.73;;
3207;SDS011;1616;52.394;9.756;2023-07-09T01:27:29;7.90;;;6.47;;
3207;SDS011;1616;52.394;9.756;2023-07-09T01:30:02;7.33;;;6.63;;
3207;SDS011;1616;52.394;9.756;2023-07-09T01:32:31;7.83;;;6.03;;
3207;SDS011;1616;52.394;9.756;2023-07-09T01:34:59;6.93;;;6.63;;
3207;SDS011;1616;52.394;9.756;2023-07-09T01:37:30;7.63;;;6.60;;
3207;SDS011;1616;52.394;9.756;2023-07-09T01:39:57;6.20;;;5.80;;
3207;SDS011;1616;52.394;9.756;2023-07-09T01:42:24;6.87;;;6.37;;
3207;SDS011;1616;52.394;9.756;2023-07-09T01:44:52;6.00;;;5.50;;
3207;SDS011;1616;52.394;9.756;2023-07-09T01:47:19;9.20;;;5.90;;
3207;SDS011;1616;52.394;9.756;2023-07-09T01:49:45;7.40;;;6.40;;
3207;SDS011;1616;52.394;9.756;2023-07-09T01:52:11;6.07;;;5.67;;
3207;SDS011;1616;52.394;9.756;2023-07-09T01:54:39;10.37;;;7.23;;
3207;SDS011;1616;52.394;9.756;2023-07-09T01:57:15;10.30;;;6.80;;
3207;SDS011;1616;52.394;9.756;2023-07-09T01:59:44;6.57;;;5.97;;
3207;SDS011;1616;52.394;9.756;2023-07-09T02:02:10;6.53;;;5.90;;
3207;SDS011;1616;52.394;9.756;2023-07-09T02:04:43;6.20;;;5.73;;
3207;SDS011;1616;52.394;9.756;2023-07-09T02:07:10;7.23;;;6.73;;
3207;SDS011;1616;52.394;9.756;2023-07-09T02:09:36;9.80;;;5.93;;
3207;SDS011;1616;52.394;9.756;2023-07-09T02:12:02;7.23;;;6.53;;
3207;SDS011;1616;52.394;9.756;2023-07-09T02:14:27;6.57;;;6.00;;
3207;SDS011;1616;52.394;9.756;2023-07-09T02:16:53;5.57;;;5.17;;
3207;SDS011;1616;52.394;9.756;2023-07-09T02:19:19;5.77;;;5.37;;
3207;SDS011;1616;52.394;9.756;2023-07-09T02:21:44;6.37;;;5.97;;
3207;SDS011;1616;52.394;9.756;2023-07-09T02:24:10;5.93;;;5.63;;
3207;SDS011;1616;52.394;9.756;2023-07-09T02:26:36;5.87;;;5.57;;
3207;SDS011;1616;52.394;9.756;2023-07-09T02:29:01;7.13;;;5.87;;
3207;SDS011;1616;52.394;9.756;2023-07-09T02:31:27;6.13;;;5.73;;
3207;SDS011;1616;52.394;9.756;2023-07-09T02:33:55;7.53;;;5.83;;
3207;SDS011;1616;52.394;9.756;2023-07-09T02:36:22;6.70;;;6.27;;
3207;SDS011;1616;52.394;9.756;2023-07-09T02:38:49;5.40;;;4.97;;
3207;SDS011;1616;52.394;9.756;2023-07-09T02:41:14;8.17;;;5.33;;
3207;SDS011;1616;52.394;9.756;2023-07-09T02:43:40;6.87;;;6.53;;
3207;SDS011;1616;52.394;9.756;2023-07-09T02:46:06;5.73;;;5.33;;
3207;SDS011;1616;52.394;9.756;2023-07-09T02:48:32;5.77;;;5.37;;
3207;SDS011;1616;52.394;9.756;2023-07-09T02:50:58;5.63;;;5.43;;
3207;SDS011;1616;52.394;9.756;2023-07-09T02:53:24;5.73;;;5.43;;
3207;SDS011;1616;52.394;9.756;2023-07-09T02:55:50;5.80;;;5.50;;
3207;SDS011;1616;52.394;9.756;2023-07-09T02:58:16;6.63;;;5.93;;
3207;SDS011;1616;52.394;9.756;2023-07-09T03:00:41;6.37;;;6.07;;
3207;SDS011;1616;52.394;9.756;2023-07-09T03:03:07;6.73;;;6.33;;
3207;SDS011;1616;52.394;9.756;2023-07-09T03:05:33;6.60;;;6.20;;
3207;SDS011;1616;52.394;9.756;2023-07-09T03:07:59;6.10;;;5.80;;
3207;SDS011;1616;52.394;9.756;2023-07-09T03:10:25;6.67;;;6.20;;
3207;SDS011;1616;52.394;9.756;2023-07-09T03:12:53;5.70;;;5.50;;
3207;SDS011;1616;52.394;9.756;2023-07-09T03:15:18;5.57;;;5.37;;
3207;SDS011;1616;52.394;9.756;2023-07-09T03:17:44;5.87;;;5.47;;
3207;SDS011;1616;52.394;9.756;2023-07-09T03:20:09;5.90;;;5.50;;
3207;SDS011;1616;52.394;9.756;2023-07-09T03:22:36;6.23;;;5.67;;
3207;SDS011;1616;52.394;9.756;2023-07-09T03:25:01;5.67;;;5.30;;
3207;SDS011;1616;52.394;9.756;2023-07-09T03:27:27;5.60;;;5.20;;
3207;SDS011;1616;52.394;9.756;2023-07-09T03:29:52;6.67;;;6.07;;
3207;SDS011;1616;52.394;9.756;2023-07-09T03:32:18;13.00;;;5.93;;
3207;SDS011;1616;52.394;9.756;2023-07-09T03:34:43;6.20;;;5.80;;
3207;SDS011;1616;52.394;9.756;2023-07-09T03:37:09;7.07;;;6.57;;
3207;SDS011;1616;52.394;9.756;2023-07-09T03:39:35;5.07;;;4.73;;
3207;SDS011;1616;52.394;9.756;2023-07-09T03:42:00;5.27;;;4.97;;
3207;SDS011;1616;52.394;9.756;2023-07-09T03:44:26;6.10;;;5.70;;
3207;SDS011;1616;52.394;9.756;2023-07-09T03:46:52;5.83;;;5.53;;
3207;SDS011;1616;52.394;9.756;2023-07-09T03:49:18;6.80;;;6.30;;
3207;SDS011;1616;52.394;9.756;2023-07-09T03:51:44;5.10;;;4.90;;
3207;SDS011;1616;52.394;9.756;2023-07-09T03:54:09;5.77;;;5.43;;
3207;SDS011;1616;52.394;9.756;2023-07-09T03:56:35;5.70;;;5.20;;
3207;SDS011;1616;52.394;9.756;2023-07-09T03:59:02;6.17;;;5.73;;
3207;SDS011;1616;52.394;9.756;2023-07-09T04:01:27;6.00;;;5.60;;
3207;SDS011;1616;52.394;9.756;2023-07-09T04:03:53;5.33;;;4.93;;
3207;SDS011;1616;52.394;9.756;2023-07-09T04:06:18;9.03;;;5.30;;
3207;SDS011;1616;52.394;9.756;2023-07-09T04:08:44;5.20;;;5.00;;
3207;SDS011;1616;52.394;9.756;2023-07-09T04:11:10;4.97;;;4.57;;
3207;SDS011;1616;52.394;9.756;2023-07-09T04:13:35;4.97;;;4.57;;
3207;SDS011;1616;52.394;9.756;2023-07-09T04:16:01;5.00;;;4.80;;
3207;SDS011;1616;52.394;9.756;2023-07-09T04:18:27;4.70;;;4.40;;
3207;SDS011;1616;52.394;9.756;2023-07-09T04:20:52;4.87;;;4.57;;
3207;SDS011;1616;52.394;9.756;2023-07-09T04:23:18;5.63;;;5.33;;
3207;SDS011;1616;52.394;9.756;2023-07-09T04:25:44;5.30;;;4.90;;
3207;SDS011;1616;52.394;9.756;2023-07-09T04:28:10;5.20;;;4.80;;
3207;SDS011;1616;52.394;9.756;2023-07-09T04:30:36;5.93;;;5.20;;
3207;SDS011;1616;52.394;9.756;2023-07-09T04:33:01;10.73;;;5.27;;
3207;SDS011;1616;52.394;9.756;2023-07-09T04:35:27;5.10;;;4.70;;
3207;SDS011;1616;52.394;9.756;2023-07-09T04:37:53;6.53;;;4.67;;
3207;SDS011;1616;52.394;9.756;2023-07-09T04:40:18;5.73;;;5.33;;
3207;SDS011;1616;52.394;9.756;2023-07-09T04:42:45;4.70;;;4.40;;
3207;SDS011;1616;52.394;9.756;2023-07-09T04:45:11;4.33;;;4.13;;
3207;SDS011;1616;52.394;9.756;2023-07-09T04:47:37;4.83;;;4.63;;
3207;SDS011;1616;52.394;9.756;2023-07-09T04:50:04;7.20;;;5.20;;
3207;SDS011;1616;52.394;9.756;2023-07-09T04:52:31;5.70;;;4.00;;
3207;SDS011;1616;52.394;9.756;2023-07-09T04:54:56;5.43;;;5.07;;
3207;SDS011;1616;52.394;9.756;2023-07-09T04:57:22;5.63;;;4.20;;
3207;SDS011;1616;52.394;9.756;2023-07-09T04:59:48;4.73;;;4.43;;
3207;SDS011;1616;52.394;9.756;2023-07-09T05:02:14;5.27;;;4.97;;
3207;SDS011;1616;52.394;9.756;2023-07-09T05:04:40;7.20;;;5.07;;
3207;SDS011;1616;52.394;9.756;2023-07-09T05:07:06;6.40;;;5.50;;
3207;SDS011;1616;52.394;9.756;2023-07-09T05:09:32;4.53;;;4.13;;
3207;SDS011;1616;52.394;9.756;2023-07-09T05:11:59;8.00;;;5.13;;
3207;SDS011;1616;52.394;9.756;2023-07-09T05:14:26;4.97;;;4.50;;
3207;SDS011;1616;52.394;9.756;2023-07-09T05:16:52;4.90;;;4.40;;
3207;SDS011;1616;52.394;9.756;2023-07-09T05:19:18;6.70;;;3.87;;
3207;SDS011;1616;52.394;9.756;2023-07-09T05:21:44;4.23;;;3.93;;
3207;SDS011;1616;52.394;9.756;2023-07-09T05:24:10;4.77;;;4.57;;
3207;SDS011;1616;52.394;9.756;2023-07-09T05:26:36;4.03;;;3.83;;
3207;SDS011;1616;52.394;9.756;2023-07-09T05:29:02;4.97;;;4.67;;
3207;SDS011;1616;52.394;9.756;2023-07-09T05:31:30;5.07;;;4.53;;
3207;SDS011;1616;52.394;9.756;2023-07-09T05:33:56;4.73;;;4.40;;
3207;SDS011;1616;52.394;9.756;2023-07-09T05:36:21;6.93;;;4.90;;
3207;SDS011;1616;52.394;9.756;2023-07-09T05:38:47;6.23;;;4.70;;
3207;SDS011;1616;52.394;9.756;2023-07-09T05:41:13;5.03;;;4.50;;
3207;SDS011;1616;52.394;9.756;2023-07-09T05:43:41;7.83;;;5.53;;
3207;SDS011;1616;52.394;9.756;2023-07-09T05:46:09;6.80;;;4.53;;
3207;SDS011;1616;52.394;9.756;2023-07-09T05:48:35;9.87;;;5.23;;
3207;SDS011;1616;52.394;9.756;2023-07-09T05:51:01;4.83;;;4.40;;
3207;SDS011;1616;52.394;9.756;2023-07-09T05:53:26;8.67;;;4.90;;
3207;SDS011;1616;52.394;9.756;2023-07-09T05:55:53;5.60;;;4.40;;
3207;SDS011;1616;52.394;9.756;2023-07-09T05:58:19;7.00;;;5.03;;
3207;SDS011;1616;52.394;9.756;2023-07-09T06:00:45;4.37;;;4.17;;
3207;SDS011;1616;52.394;9.756;2023-07-09T06:03:17;5.47;;;5.17;;
3207;SDS011;1616;52.394;9.756;2023-07-09T06:05:43;10.30;;;5.83;;
3207;SDS011;1616;52.394;9.756;2023-07-09T06:08:08;5.97;;;5.47;;
3207;SDS011;1616;52.394;9.756;2023-07-09T06:10:34;5.40;;;4.97;;
3207;SDS011;1616;52.394;9.756;2023-07-09T06:13:00;7.03;;;5.53;;
3207;SDS011;1616;52.394;9.756;2023-07-09T06:15:25;5.20;;;4.80;;
3207;SDS011;1616;52.394;9.756;2023-07-09T06:17:51;4.80;;;4.40;;
3207;SDS011;1616;52.394;9.756;2023-07-09T06:20:17;108.00;;;10.32;;
3207;SDS011;1616;52.394;9.756;2023-07-09T06:22:43;4.37;;;4.07;;
3207;SDS011;1616;52.394;9.756;2023-07-09T06:25:08;4.80;;;4.50;;
3207;SDS011;1616;52.394;9.756;2023-07-09T06:27:34;5.50;;;4.60;;
3207;SDS011;1616;52.394;9.756;2023-07-09T06:29:59;7.90;;;4.10;;
3207;SDS011;1616;52.394;9.756;2023-07-09T06:32:25;4.70;;;4.37;;
3207;SDS011;1616;52.394;9.756;2023-07-09T06:34:51;6.03;;;4.93;;
3207;SDS011;1616;52.394;9.756;2023-07-09T06:37:16;4.57;;;4.30;;
3207;SDS011;1616;52.394;9.756;2023-07-09T06:39:42;7.32;;;4.38;;
3207;SDS011;1616;52.394;9.756;2023-07-09T06:42:08;10.13;;;4.05;;
3207;SDS011;1616;52.394;9.756;2023-07-09T06:44:34;5.15;;;4.72;;
3207;SDS011;1616;52.394;9.756;2023-07-09T06:46:59;4.28;;;4.07;;
3207;SDS011;1616;52.394;9.756;2023-07-09T06:49:25;4.93;;;4.47;;
3207;SDS011;1616;52.394;9.756;2023-07-09T06:51:50;8.30;;;4.37;;
3207;SDS011;1616;52.394;9.756;2023-07-09T06:54:16;5.45;;;4.43;;
3207;SDS011;1616;52.394;9.756;2023-07-09T06:56:41;5.07;;;4.88;;
3207;SDS011;1616;52.394;9.756;2023-07-09T06:59:07;4.10;;;3.90;;
3207;SDS011;1616;52.394;9.756;2023-07-09T07:01:32;5.45;;;5.15;;
3207;SDS011;1616;52.394;9.756;2023-07-09T07:03:59;7.60;;;4.07;;
3207;SDS011;1616;52.394;9.756;2023-07-09T07:06:25;5.10;;;4.70;;
3207;SDS011;1616;52.394;9.756;2023-07-09T07:08:51;15.57;;;3.88;;
3207;SDS011;1616;52.394;9.756;2023-07-09T07:11:16;4.60;;;4.20;;
3207;SDS011;1616;52.394;9.756;2023-07-09T07:13:42;6.88;;;4.43;;
3207;SDS011;1616;52.394;9.756;2023-07-09T07:16:09;3.72;;;3.53;;
3207;SDS011;1616;52.394;9.756;2023-07-09T07:18:36;5.28;;;3.85;;
3207;SDS011;1616;52.394;9.756;2023-07-09T07:21:02;10.60;;;4.25;;
3207;SDS011;1616;52.394;9.756;2023-07-09T07:23:29;8.57;;;4.00;;
3207;SDS011;1616;52.394;9.756;2023-07-09T07:25:55;3.67;;;3.47;;
3207;SDS011;1616;52.394;9.756;2023-07-09T07:28:21;6.90;;;3.88;;
3207;SDS011;1616;52.394;9.756;2023-07-09T07:30:57;4.20;;;3.33;;
3207;SDS011;1616;52.394;9.756;2023-07-09T07:33:24;3.13;;;2.92;;
3207;SDS011;1616;52.394;9.756;2023-07-09T07:35:49;3.55;;;3.35;;
3207;SDS011;1616;52.394;9.756;2023-07-09T07:38:15;5.57;;;3.63;;
3207;SDS011;1616;52.394;9.756;2023-07-09T07:40:43;3.97;;;3.78;;
3207;SDS011;1616;52.394;9.756;2023-07-09T07:43:10;4.20;;;4.00;;
3207;SDS011;1616;52.394;9.756;2023-07-09T07:45:35;3.80;;;3.50;;
3207;SDS011;1616;52.394;9.756;2023-07-09T07:48:05;4.00;;;3.65;;
3207;SDS011;1616;52.394;9.756;2023-07-09T07:50:31;5.20;;;4.40;;
3207;SDS011;1616;52.394;9.756;2023-07-09T07:52:56;4.22;;;3.83;;
3207;SDS011;1616;52.394;9.756;2023-07-09T07:55:22;4.13;;;3.83;;
3207;SDS011;1616;52.394;9.756;2023-07-09T07:57:48;6.07;;;3.92;;
3207;SDS011;1616;52.394;9.756;2023-07-09T08:00:14;7.40;;;3.80;;
3207;SDS011;1616;52.394;9.756;2023-07-09T08:02:40;5.18;;;4.05;;
3207;SDS011;1616;52.394;9.756;2023-07-09T08:05:06;5.10;;;4.78;;
3207;SDS011;1616;52.394;9.756;2023-07-09T08:07:32;4.70;;;4.40;;
3207;SDS011;1616;52.394;9.756;2023-07-09T08:09:57;4.80;;;4.45;;
3207;SDS011;1616;52.394;9.756;2023-07-09T08:12:23;4.65;;;4.22;;
3207;SDS011;1616;52.394;9.756;2023-07-09T08:14:48;5.57;;;4.90;;
3207;SDS011;1616;52.394;9.756;2023-07-09T08:17:14;4.53;;;4.22;;
3207;SDS011;1616;52.394;9.756;2023-07-09T08:19:47;5.30;;;5.05;;
3207;SDS011;1616;52.394;9.756;2023-07-09T08:22:16;12.38;;;5.18;;
3207;SDS011;1616;52.394;9.756;2023-07-09T08:24:45;6.07;;;4.10;;
3207;SDS011;1616;52.394;9.756;2023-07-09T08:27:11;8.85;;;3.65;;
3207;SDS011;1616;52.394;9.756;2023-07-09T08:29:37;3.80;;;3.60;;
3207;SDS011;1616;52.394;9.756;2023-07-09T08:32:03;3.95;;;3.75;;
3207;SDS011;1616;52.394;9.756;2023-07-09T08:34:29;7.60;;;4.35;;
3207;SDS011;1616;52.394;9.756;2023-07-09T08:36:55;8.82;;;4.13;;
3207;SDS011;1616;52.394;9.756;2023-07-09T08:39:20;8.70;;;4.63;;
3207;SDS011;1616;52.394;9.756;2023-07-09T08:42:05;4.55;;;4.15;;
3207;SDS011;1616;52.394;9.756;2023-07-09T08:44:42;5.82;;;4.00;;
3207;SDS011;1616;52.394;9.756;2023-07-09T08:50:07;8.70;;;4.47;;
3207;SDS011;1616;52.394;9.756;2023-07-09T08:52:37;3.42;;;3.20;;
3207;SDS011;1616;52.394;9.756;2023-07-09T08:55:07;6.32;;;4.30;;
3207;SDS011;1616;52.394;9.756;2023-07-09T08:57:40;6.88;;;4.07;;
3207;SDS011;1616;52.394;9.756;2023-07-09T09:00:32;5.18;;;3.72;;
3207;SDS011;1616;52.394;9.756;2023-07-09T09:06:11;4.57;;;3.50;;
3207;SDS011;1616;52.394;9.756;2023-07-09T09:15:16;3.80;;;3.60;;
3207;SDS011;1616;52.394;9.756;2023-07-09T09:17:45;4.05;;;3.85;;
3207;SDS011;1616;52.394;9.756;2023-07-09T09:20:17;3.35;;;3.03;;
3207;SDS011;1616;52.394;9.756;2023-07-09T09:25:33;2.97;;;2.78;;
3207;SDS011;1616;52.394;9.756;2023-07-09T09:28:01;3.88;;;3.20;;
3207;SDS011;1616;52.394;9.756;2023-07-09T09:30:28;3.72;;;3.35;;
3207;SDS011;1616;52.394;9.756;2023-07-09T09:33:01;8.60;;;3.22;;
3207;SDS011;1616;52.394;9.756;2023-07-09T09:35:32;8.40;;;3.58;;
3207;SDS011;1616;52.394;9.756;2023-07-09T09:37:59;3.30;;;2.92;;
3207;SDS011;1616;52.394;9.756;2023-07-09T09:40:28;5.30;;;2.53;;
3207;SDS011;1616;52.394;9.756;2023-07-09T09:42:59;3.15;;;2.95;;
3207;SDS011;1616;52.394;9.756;2023-07-09T09:45:32;4.75;;;3.50;;
3207;SDS011;1616;52.394;9.756;2023-07-09T09:48:01;3.00;;;2.80;;
3207;SDS011;1616;52.394;9.756;2023-07-09T09:50:38;2.83;;;2.55;;
3207;SDS011;1616;52.394;9.756;2023-07-09T09:53:06;4.45;;;3.45;;
3207;SDS011;1616;52.394;9.756;2023-07-09T09:55:33;3.90;;;3.55;;
3207;SDS011;1616;52.394;9.756;2023-07-09T09:57:59;2.85;;;2.65;;
3207;SDS011;1616;52.394;9.756;2023-07-09T10:00:28;4.43;;;2.30;;
3207;SDS011;1616;52.394;9.756;2023-07-09T10:02:58;3.97;;;3.60;;
3207;SDS011;1616;52.394;9.756;2023-07-09T10:05:32;3.25;;;2.80;;
3207;SDS011;1616;52.394;9.756;2023-07-09T10:08:08;2.33;;;2.13;;
3207;SDS011;1616;52.394;9.756;2023-07-09T10:10:40;3.67;;;3.15;;
3207;SDS011;1616;52.394;9.756;2023-07-09T10:13:30;3.25;;;3.10;;
3207;SDS011;1616;52.394;9.756;2023-07-09T10:18:53;3.67;;;2.72;;
3207;SDS011;1616;52.394;9.756;2023-07-09T10:21:46;3.83;;;2.80;;
3207;SDS011;1616;52.394;9.756;2023-07-09T10:26:58;3.22;;;2.67;;
3207;SDS011;1616;52.394;9.756;2023-07-09T10:29:34;5.00;;;2.88;;
3207;SDS011;1616;52.394;9.756;2023-07-09T10:40:11;3.25;;;3.05;;
3207;SDS011;1616;52.394;9.756;2023-07-09T10:45:12;3.50;;;3.20;;
3207;SDS011;1616;52.394;9.756;2023-07-09T10:47:41;3.63;;;3.38;;
3207;SDS011;1616;52.394;9.756;2023-07-09T10:50:15;6.50;;;3.33;;
3207;SDS011;1616;52.394;9.756;2023-07-09T10:52:51;5.00;;;3.13;;
3207;SDS011;1616;52.394;9.756;2023-07-09T10:56:24;4.22;;;3.78;;
3207;SDS011;1616;52.394;9.756;2023-07-09T10:58:30;3.42;;;3.22;;
3207;SDS011;1616;52.394;9.756;2023-07-09T11:01:04;3.58;;;3.28;;
3207;SDS011;1616;52.394;9.756;2023-07-09T11:03:43;2.75;;;2.60;;
3207;SDS011;1616;52.394;9.756;2023-07-09T11:06:20;2.75;;;2.60;;
3207;SDS011;1616;52.394;9.756;2023-07-09T11:08:52;2.70;;;2.47;;
3207;SDS011;1616;52.394;9.756;2023-07-09T11:11:43;4.28;;;3.15;;
3207;SDS011;1616;52.394;9.756;2023-07-09T11:17:27;6.30;;;3.25;;
3207;SDS011;1616;52.394;9.756;2023-07-09T11:19:55;3.13;;;2.75;;
3207;SDS011;1616;52.394;9.756;2023-07-09T11:22:50;3.13;;;2.40;;
3207;SDS011;1616;52.394;9.756;2023-07-09T11:25:27;3.10;;;2.90;;
3207;SDS011;1616;52.394;9.756;2023-07-09T11:28:11;3.85;;;3.28;;
3207;SDS011;1616;52.394;9.756;2023-07-09T11:30:47;3.05;;;2.75;;
3207;SDS011;1616;52.394;9.756;2023-07-09T11:33:27;4.47;;;2.85;;
3207;SDS011;1616;52.394;9.756;2023-07-09T11:36:08;2.83;;;2.65;;
3207;SDS011;1616;52.394;9.756;2023-07-09T11:38:38;3.80;;;2.85;;
3207;SDS011;1616;52.394;9.756;2023-07-09T11:41:26;3.15;;;2.85;;
3207;SDS011;1616;52.394;9.756;2023-07-09T11:44:04;2.70;;;2.50;;
3207;SDS011;1616;52.394;9.756;2023-07-09T11:46:50;3.20;;;3.00;;
3207;SDS011;1616;52.394;9.756;2023-07-09T11:49:49;3.20;;;3.10;;
3207;SDS011;1616;52.394;9.756;2023-07-09T11:52:25;3.25;;;3.05;;
3207;SDS011;1616;52.394;9.756;2023-07-09T11:57:54;2.90;;;2.70;;
3207;SDS011;1616;52.394;9.756;2023-07-09T12:00:20;4.00;;;2.92;;
3207;SDS011;1616;52.394;9.756;2023-07-09T12:02:46;3.47;;;3.28;;
3207;SDS011;1616;52.394;9.756;2023-07-09T12:05:12;13.50;;;3.55;;
3207;SDS011;1616;52.394;9.756;2023-07-09T12:07:43;3.25;;;2.85;;
3207;SDS011;1616;52.394;9.756;2023-07-09T12:10:32;5.00;;;3.30;;
3207;SDS011;1616;52.394;9.756;2023-07-09T12:12:58;3.25;;;3.05;;
3207;SDS011;1616;52.394;9.756;2023-07-09T12:15:26;3.58;;;3.33;;
3207;SDS011;1616;52.394;9.756;2023-07-09T12:18:01;3.22;;;3.13;;
3207;SDS011;1616;52.394;9.756;2023-07-09T12:20:30;3.42;;;3.22;;
3207;SDS011;1616;52.394;9.756;2023-07-09T12:22:59;3.25;;;3.00;;
3207;SDS011;1616;52.394;9.756;2023-07-09T12:25:26;4.57;;;3.85;;
3207;SDS011;1616;52.394;9.756;2023-07-09T12:27:58;4.10;;;3.80;;
3207;SDS011;1616;52.394;9.756;2023-07-09T12:30:24;2.90;;;2.75;;
3207;SDS011;1616;52.394;9.756;2023-07-09T12:32:50;3.58;;;3.30;;
3207;SDS011;1616;52.394;9.756;2023-07-09T12:35:19;3.15;;;2.95;;
3207;SDS011;1616;52.394;9.756;2023-07-09T12:37:46;4.05;;;3.80;;
3207;SDS011;1616;52.394;9.756;2023-07-09T12:40:14;3.58;;;3.00;;
3207;SDS011;1616;52.394;9.756;2023-07-09T12:42:42;3.75;;;3.47;;
3207;SDS011;1616;52.394;9.756;2023-07-09T12:45:18;4.13;;;3.67;;
3207;SDS011;1616;52.394;9.756;2023-07-09T12:47:46;3.38;;;3.17;;
3207;SDS011;1616;52.394;9.756;2023-07-09T12:52:48;4.28;;;3.88;;
3207;SDS011;1616;52.394;9.756;2023-07-09T12:55:25;3.70;;;3.00;;
3207;SDS011;1616;52.394;9.756;2023-07-09T12:57:54;3.67;;;3.38;;
3207;SDS011;1616;52.394;9.756;2023-07-09T13:00:21;4.15;;;3.80;;
3207;SDS011;1616;52.394;9.756;2023-07-09T13:02:52;4.15;;;3.63;;
3207;SDS011;1616;52.394;9.756;2023-07-09T13:05:21;3.45;;;3.00;;
3207;SDS011;1616;52.394;9.756;2023-07-09T13:07:52;3.67;;;3.38;;
3207;SDS011;1616;52.394;9.756;2023-07-09T13:10:24;3.42;;;3.22;;
3207;SDS011;1616;52.394;9.756;2023-07-09T13:12:53;3.08;;;2.88;;
3207;SDS011;1616;52.394;9.756;2023-07-09T13:17:57;3.92;;;3.08;;
3207;SDS011;1616;52.394;9.756;2023-07-09T13:20:23;3.72;;;3.42;;
3207;SDS011;1616;52.394;9.756;2023-07-09T13:22:49;4.05;;;3.13;;
3207;SDS011;1616;52.394;9.756;2023-07-09T13:25:16;4.38;;;3.33;;
3207;SDS011;1616;52.394;9.756;2023-07-09T13:27:41;3.30;;;3.00;;
3207;SDS011;1616;52.394;9.756;2023-07-09T13:30:08;5.50;;;3.33;;
3207;SDS011;1616;52.394;9.756;2023-07-09T13:32:34;8.50;;;3.58;;
3207;SDS011;1616;52.394;9.756;2023-07-09T13:35:00;3.45;;;3.25;;
3207;SDS011;1616;52.394;9.756;2023-07-09T13:37:25;3.60;;;3.40;;
3207;SDS011;1616;52.394;9.756;2023-07-09T13:39:51;3.67;;;3.38;;
3207;SDS011;1616;52.394;9.756;2023-07-09T13:42:17;3.17;;;3.00;;
3207;SDS011;1616;52.394;9.756;2023-07-09T13:44:44;3.22;;;3.03;;
3207;SDS011;1616;52.394;9.756;2023-07-09T13:47:14;6.35;;;3.42;;
3207;SDS011;1616;52.394;9.756;2023-07-09T13:49:44;4.10;;;2.83;;
3207;SDS011;1616;52.394;9.756;2023-07-09T13:52:16;3.38;;;3.17;;
3207;SDS011;1616;52.394;9.756;2023-07-09T13:54:45;3.90;;;3.60;;
3207;SDS011;1616;52.394;9.756;2023-07-09T13:57:19;3.25;;;3.05;;
3207;SDS011;1616;52.394;9.756;2023-07-09T13:59:47;3.20;;;3.00;;
3207;SDS011;1616;52.394;9.756;2023-07-09T14:02:17;4.22;;;3.90;;
3207;SDS011;1616;52.394;9.756;2023-07-09T14:04:49;3.72;;;3.08;;
3207;SDS011;1616;52.394;9.756;2023-07-09T14:07:25;5.20;;;3.58;;
3207;SDS011;1616;52.394;9.756;2023-07-09T14:09:53;4.07;;;3.72;;
3207;SDS011;1616;52.394;9.756;2023-07-09T14:12:19;3.42;;;3.13;;
3207;SDS011;1616;52.394;9.756;2023-07-09T14:14:47;3.05;;;2.85;;
3207;SDS011;1616;52.394;9.756;2023-07-09T14:17:15;3.97;;;3.72;;
3207;SDS011;1616;52.394;9.756;2023-07-09T14:19:41;4.43;;;4.22;;
3207;SDS011;1616;52.394;9.756;2023-07-09T14:24:46;8.45;;;3.40;;
3207;SDS011;1616;52.394;9.756;2023-07-09T14:27:12;6.63;;;3.55;;
3207;SDS011;1616;52.394;9.756;2023-07-09T14:29:38;4.78;;;3.72;;
3207;SDS011;1616;52.394;9.756;2023-07-09T14:32:04;3.85;;;3.03;;
3207;SDS011;1616;52.394;9.756;2023-07-09T14:34:32;4.13;;;3.83;;
3207;SDS011;1616;52.394;9.756;2023-07-09T14:36:58;3.10;;;2.90;;
3207;SDS011;1616;52.394;9.756;2023-07-09T14:39:28;8.45;;;3.70;;
3207;SDS011;1616;52.394;9.756;2023-07-09T14:41:54;4.72;;;3.35;;
3207;SDS011;1616;52.394;9.756;2023-07-09T14:44:27;3.28;;;3.08;;
3207;SDS011;1616;52.394;9.756;2023-07-09T14:46:56;3.60;;;3.40;;
3207;SDS011;1616;52.394;9.756;2023-07-09T14:49:23;5.97;;;2.95;;
3207;SDS011;1616;52.394;9.756;2023-07-09T14:51:50;3.90;;;3.70;;
3207;SDS011;1616;52.394;9.756;2023-07-09T14:54:20;6.47;;;3.40;;
3207;SDS011;1616;52.394;9.756;2023-07-09T14:56:48;5.80;;;3.65;;
3207;SDS011;1616;52.394;9.756;2023-07-09T14:59:15;3.22;;;3.03;;
3207;SDS011;1616;52.394;9.756;2023-07-09T15:01:41;3.83;;;3.63;;
3207;SDS011;1616;52.394;9.756;2023-07-09T15:06:49;6.90;;;3.60;;
3207;SDS011;1616;52.394;9.756;2023-07-09T15:09:16;4.15;;;3.50;;
3207;SDS011;1616;52.394;9.756;2023-07-09T15:11:42;3.97;;;3.67;;
3207;SDS011;1616;52.394;9.756;2023-07-09T15:14:11;4.93;;;3.63;;
3207;SDS011;1616;52.394;9.756;2023-07-09T15:16:37;6.97;;;3.75;;
3207;SDS011;1616;52.394;9.756;2023-07-09T15:19:24;3.53;;;3.33;;
3207;SDS011;1616;52.394;9.756;2023-07-09T15:21:50;4.03;;;3.75;;
3207;SDS011;1616;52.394;9.756;2023-07-09T15:26:53;4.57;;;3.47;;
3207;SDS011;1616;52.394;9.756;2023-07-09T15:29:20;3.67;;;3.47;;
3207;SDS011;1616;52.394;9.756;2023-07-09T15:31:46;4.18;;;3.88;;
3207;SDS011;1616;52.394;9.756;2023-07-09T15:34:12;4.80;;;4.40;;
3207;SDS011;1616;52.394;9.756;2023-07-09T15:36:43;3.10;;;2.90;;
3207;SDS011;1616;52.394;9.756;2023-07-09T15:39:14;3.60;;;3.40;;
3207;SDS011;1616;52.394;9.756;2023-07-09T15:41:41;9.03;;;3.77;;
3207;SDS011;1616;52.394;9.756;2023-07-09T15:44:10;3.77;;;3.50;;
3207;SDS011;1616;52.394;9.756;2023-07-09T15:46:53;4.40;;;4.00;;
3207;SDS011;1616;52.394;9.756;2023-07-09T15:49:21;3.80;;;3.60;;
3207;SDS011;1616;52.394;9.756;2023-07-09T15:51:47;4.83;;;4.33;;
3207;SDS011;1616;52.394;9.756;2023-07-09T15:54:18;3.57;;;3.37;;
3207;SDS011;1616;52.394;9.756;2023-07-09T15:56:45;8.07;;;3.80;;
3207;SDS011;1616;52.394;9.756;2023-07-09T15:59:29;3.70;;;3.50;;
3207;SDS011;1616;52.394;9.756;2023-07-09T16:01:57;6.07;;;3.93;;
3207;SDS011;1616;52.394;9.756;2023-07-09T16:04:24;3.80;;;3.50;;
3207;SDS011;1616;52.394;9.756;2023-07-09T16:06:50;4.43;;;4.13;;
3207;SDS011;1616;52.394;9.756;2023-07-09T16:09:16;4.87;;;3.60;;
3207;SDS011;1616;52.394;9.756;2023-07-09T16:11:43;4.33;;;4.03;;
3207;SDS011;1616;52.394;9.756;2023-07-09T16:16:49;4.17;;;3.97;;
3207;SDS011;1616;52.394;9.756;2023-07-09T16:19:20;6.43;;;4.10;;
3207;SDS011;1616;52.394;9.756;2023-07-09T16:21:48;4.00;;;3.70;;
3207;SDS011;1616;52.394;9.756;2023-07-09T16:24:17;4.43;;;4.10;;
3207;SDS011;1616;52.394;9.756;2023-07-09T16:26:45;4.90;;;4.13;;